sensor_id;sensor_type;location;lat;lon;timestamp;pressure;altitude;pressure_sealevel;temperature;humidity
54876;BME280;40764;48.472;8.166;2022-11-18T00:05:17;96368.97;;;9.39;100.00
54876;BME280;40764;48.472;8.166;2022-11-18T00:11:23;96380.75;;;9.73;100.00
54876;BME280;40764;48.472;8.166;2022-11-18T00:17:43;96375.28;;;9.52;100.00
54876;BME280;40764;48.472;8.166;2022-11-18T00:23:43;96375.84;;;9.66;100.00
54876;BME280;40764;48.472;8.166;2022-11-18T00:29:44;96385.47;;;9.43;100.00
54876;BME280;40764;48.472;8.166;2022-11-18T00:35:52;96391.13;;;9.38;100.00
54876;BME280;40764;48.472;8.166;2022-11-18T00:41:53;96394.72;;;9.50;100.00
54876;BME280;40764;48.472;8.166;2022-11-18T00:48:12;96389.78;;;9.44;100.00
54876;BME280;40764;48.472;8.166;2022-11-18T00:54:12;96387.84;;;9.23;100.00
54876;BME280;40764;48.472;8.166;2022-11-18T01:00:13;96399.19;;;9.55;100.00
54876;BME280;40764;48.472;8.166;2022-11-18T01:06:14;96396.06;;;9.65;100.00
54876;BME280;40764;48.472;8.166;2022-11-18T01:12:14;96416.47;;;9.80;100.00
54876;BME280;40764;48.472;8.166;2022-11-18T01:18:34;96423.59;;;9.51;100.00
54876;BME280;40764;48.472;8.166;2022-11-18T01:24:34;96433.38;;;9.52;100.00
54876;BME280;40764;48.472;8.166;2022-11-18T01:30:36;96442.88;;;9.46;100.00
54876;BME280;40764;48.472;8.166;2022-11-18T01:36:37;96452.00;;;9.50;100.00
54876;BME280;40764;48.472;8.166;2022-11-18T01:42:39;96467.28;;;9.43;100.00
54876;BME280;40764;48.472;8.166;2022-11-18T01:48:41;96470.06;;;9.63;100.00
54876;BME280;40764;48.472;8.166;2022-11-18T01:54:47;96484.38;;;9.52;100.00
54876;BME280;40764;48.472;8.166;2022-11-18T02:00:51;96489.69;;;9.57;100.00
54876;BME280;40764;48.472;8.166;2022-11-18T02:06:55;96485.38;;;9.47;100.00
54876;BME280;40764;48.472;8.166;2022-11-18T02:12:59;96500.59;;;9.78;100.00
54876;BME280;40764;48.472;8.166;2022-11-18T02:19:04;96512.16;;;9.83;100.00
54876;BME280;40764;48.472;8.166;2022-11-18T02:32:05;96536.88;;;9.78;96.47
54876;BME280;40764;48.472;8.166;2022-11-18T02:38:09;96541.06;;;9.76;96.92
54876;BME280;40764;48.472;8.166;2022-11-18T02:44:14;96553.88;;;9.54;94.78
54876;BME280;40764;48.472;8.166;2022-11-18T02:50:20;96560.34;;;9.41;94.11
54876;BME280;40764;48.472;8.166;2022-11-18T02:56:23;96558.75;;;9.40;92.69
54876;BME280;40764;48.472;8.166;2022-11-18T03:02:25;96562.34;;;9.15;94.13
54876;BME280;40764;48.472;8.166;2022-11-18T03:08:27;96561.19;;;9.24;94.44
54876;BME280;40764;48.472;8.166;2022-11-18T03:15:00;96568.03;;;8.84;97.08
54876;BME280;40764;48.472;8.166;2022-11-18T03:21:08;96568.56;;;8.68;99.84
54876;BME280;40764;48.472;8.166;2022-11-18T03:27:18;96572.25;;;8.55;100.00
54876;BME280;40764;48.472;8.166;2022-11-18T03:33:23;96576.53;;;8.65;100.00
54876;BME280;40764;48.472;8.166;2022-11-18T03:39:29;96600.44;;;8.77;100.00
54876;BME280;40764;48.472;8.166;2022-11-18T03:45:36;96618.69;;;8.85;100.00
54876;BME280;40764;48.472;8.166;2022-11-18T03:51:47;96624.78;;;8.99;100.00
54876;BME280;40764;48.472;8.166;2022-11-18T03:57:59;96632.16;;;8.73;100.00
54876;BME280;40764;48.472;8.166;2022-11-18T04:04:02;96628.66;;;8.72;100.00
54876;BME280;40764;48.472;8.166;2022-11-18T04:10:14;96636.94;;;9.02;100.00
54876;BME280;40764;48.472;8.166;2022-11-18T04:16:15;96632.31;;;9.02;100.00
54876;BME280;40764;48.472;8.166;2022-11-18T04:22:16;96645.28;;;8.88;100.00
54876;BME280;40764;48.472;8.166;2022-11-18T04:28:20;96638.88;;;9.01;100.00
54876;BME280;40764;48.472;8.166;2022-11-18T04:34:20;96635.59;;;9.25;100.00
54876;BME280;40764;48.472;8.166;2022-11-18T04:40:20;96646.22;;;9.18;100.00
54876;BME280;40764;48.472;8.166;2022-11-18T04:46:21;96651.88;;;8.87;100.00
54876;BME280;40764;48.472;8.166;2022-11-18T04:52:21;96659.34;;;9.24;100.00
54876;BME280;40764;48.472;8.166;2022-11-18T04:58:21;96674.72;;;9.38;100.00
54876;BME280;40764;48.472;8.166;2022-11-18T05:04:23;96685.53;;;9.08;100.00
54876;BME280;40764;48.472;8.166;2022-11-18T05:10:24;96689.53;;;8.67;100.00
54876;BME280;40764;48.472;8.166;2022-11-18T05:16:25;96699.75;;;8.62;100.00
54876;BME280;40764;48.472;8.166;2022-11-18T05:22:25;96712.09;;;8.59;99.48
54876;BME280;40764;48.472;8.166;2022-11-18T05:28:25;96709.38;;;8.51;98.92
54876;BME280;40764;48.472;8.166;2022-11-18T05:34:26;96714.84;;;8.68;98.71
54876;BME280;40764;48.472;8.166;2022-11-18T05:40:26;96719.03;;;8.74;98.73
54876;BME280;40764;48.472;8.166;2022-11-18T05:46:27;96732.97;;;8.73;98.70
54876;BME280;40764;48.472;8.166;2022-11-18T05:52:28;96747.34;;;8.64;100.00
54876;BME280;40764;48.472;8.166;2022-11-18T05:58:28;96748.78;;;8.45;100.00
54876;BME280;40764;48.472;8.166;2022-11-18T06:04:45;96753.28;;;8.18;100.00
54876;BME280;40764;48.472;8.166;2022-11-18T06:10:49;96738.25;;;8.21;100.00
54876;BME280;40764;48.472;8.166;2022-11-18T06:16:55;96749.69;;;8.00;100.00
54876;BME280;40764;48.472;8.166;2022-11-18T06:22:57;96753.22;;;8.01;100.00
54876;BME280;40764;48.472;8.166;2022-11-18T06:28:58;96769.09;;;8.38;100.00
54876;BME280;40764;48.472;8.166;2022-11-18T06:34:58;96780.03;;;8.56;100.00
54876;BME280;40764;48.472;8.166;2022-11-18T06:41:00;96774.16;;;8.71;100.00
54876;BME280;40764;48.472;8.166;2022-11-18T06:47:02;96792.06;;;8.63;100.00
54876;BME280;40764;48.472;8.166;2022-11-18T06:53:02;96793.97;;;8.23;100.00
54876;BME280;40764;48.472;8.166;2022-11-18T06:59:03;96795.25;;;8.57;100.00
54876;BME280;40764;48.472;8.166;2022-11-18T07:05:04;96800.41;;;8.27;100.00
54876;BME280;40764;48.472;8.166;2022-11-18T07:11:09;96817.81;;;8.18;100.00
54876;BME280;40764;48.472;8.166;2022-11-18T07:17:10;96821.50;;;8.44;100.00
54876;BME280;40764;48.472;8.166;2022-11-18T07:23:11;96826.16;;;8.52;100.00
54876;BME280;40764;48.472;8.166;2022-11-18T07:29:11;96834.53;;;8.64;100.00
54876;BME280;40764;48.472;8.166;2022-11-18T07:35:11;96844.28;;;8.57;100.00
54876;BME280;40764;48.472;8.166;2022-11-18T07:41:14;96851.00;;;8.59;100.00
54876;BME280;40764;48.472;8.166;2022-11-18T07:47:14;96861.34;;;8.80;100.00
54876;BME280;40764;48.472;8.166;2022-11-18T07:53:15;96884.28;;;8.87;100.00
54876;BME280;40764;48.472;8.166;2022-11-18T07:59:15;96893.66;;;9.12;100.00
54876;BME280;40764;48.472;8.166;2022-11-18T08:05:15;96899.16;;;9.29;100.00
54876;BME280;40764;48.472;8.166;2022-11-18T08:11:18;96905.38;;;9.21;100.00
54876;BME280;40764;48.472;8.166;2022-11-18T08:17:18;96918.56;;;9.28;100.00
54876;BME280;40764;48.472;8.166;2022-11-18T08:23:19;96924.34;;;9.44;100.00
54876;BME280;40764;48.472;8.166;2022-11-18T08:29:19;96937.97;;;9.35;100.00
54876;BME280;40764;48.472;8.166;2022-11-18T08:35:20;96941.25;;;9.63;100.00
54876;BME280;40764;48.472;8.166;2022-11-18T08:41:30;96942.47;;;9.31;98.87
54876;BME280;40764;48.472;8.166;2022-11-18T08:47:31;96951.34;;;9.80;97.95
54876;BME280;40764;48.472;8.166;2022-11-18T08:53:31;96947.03;;;9.96;95.78
54876;BME280;40764;48.472;8.166;2022-11-18T08:59:32;96952.81;;;10.03;95.67
54876;BME280;40764;48.472;8.166;2022-11-18T09:05:32;96961.31;;;10.19;95.16
54876;BME280;40764;48.472;8.166;2022-11-18T09:11:33;96959.56;;;10.32;94.42
54876;BME280;40764;48.472;8.166;2022-11-18T09:17:33;96963.75;;;10.46;93.56
54876;BME280;40764;48.472;8.166;2022-11-18T09:23:36;96971.44;;;10.53;92.83
54876;BME280;40764;48.472;8.166;2022-11-18T09:29:36;96975.25;;;10.61;91.70
54876;BME280;40764;48.472;8.166;2022-11-18T09:35:41;96981.84;;;10.68;92.09
54876;BME280;40764;48.472;8.166;2022-11-18T09:41:58;96982.19;;;10.58;91.46
54876;BME280;40764;48.472;8.166;2022-11-18T09:48:02;96985.63;;;10.93;90.18
54876;BME280;40764;48.472;8.166;2022-11-18T09:54:23;96996.78;;;10.79;89.42
54876;BME280;40764;48.472;8.166;2022-11-18T10:00:27;97003.69;;;10.68;90.50
54876;BME280;40764;48.472;8.166;2022-11-18T10:06:31;97003.25;;;10.49;91.03
54876;BME280;40764;48.472;8.166;2022-11-18T10:24:53;97047.63;;;10.46;89.21
54876;BME280;40764;48.472;8.166;2022-11-18T10:31:03;97050.66;;;10.62;90.21
54876;BME280;40764;48.472;8.166;2022-11-18T10:49:43;97044.22;;;10.40;90.98
54876;BME280;40764;48.472;8.166;2022-11-18T10:55:57;97057.38;;;10.81;88.41
54876;BME280;40764;48.472;8.166;2022-11-18T11:08:30;97062.53;;;11.38;86.40
54876;BME280;40764;48.472;8.166;2022-11-18T11:14:31;97064.56;;;11.12;87.60
54876;BME280;40764;48.472;8.166;2022-11-18T11:20:34;97059.66;;;11.35;86.70
54876;BME280;40764;48.472;8.166;2022-11-18T11:26:50;97051.75;;;11.42;86.12
54876;BME280;40764;48.472;8.166;2022-11-18T11:52:20;97066.84;;;11.01;84.22
54876;BME280;40764;48.472;8.166;2022-11-18T12:04:56;97065.00;;;11.69;83.85
54876;BME280;40764;48.472;8.166;2022-11-18T12:11:30;97070.16;;;11.24;85.07
54876;BME280;40764;48.472;8.166;2022-11-18T12:17:41;97075.22;;;10.88;84.53
54876;BME280;40764;48.472;8.166;2022-11-18T12:30:18;97070.44;;;10.59;85.36
54876;BME280;40764;48.472;8.166;2022-11-18T12:36:33;97078.88;;;11.09;82.81
54876;BME280;40764;48.472;8.166;2022-11-18T12:42:44;97084.00;;;11.19;83.82
54876;BME280;40764;48.472;8.166;2022-11-18T12:55:28;97079.25;;;10.81;83.88
54876;BME280;40764;48.472;8.166;2022-11-18T13:01:33;97084.56;;;10.78;87.25
54876;BME280;40764;48.472;8.166;2022-11-18T13:07:46;97081.47;;;10.97;84.53
54876;BME280;40764;48.472;8.166;2022-11-18T13:14:16;97085.63;;;11.11;83.74
54876;BME280;40764;48.472;8.166;2022-11-18T13:20:38;97085.53;;;10.65;86.32
54876;BME280;40764;48.472;8.166;2022-11-18T13:26:40;97082.78;;;10.65;86.28
54876;BME280;40764;48.472;8.166;2022-11-18T13:32:46;97083.91;;;10.38;86.20
54876;BME280;40764;48.472;8.166;2022-11-18T13:38:58;97084.19;;;10.10;88.74
54876;BME280;40764;48.472;8.166;2022-11-18T13:45:00;97077.97;;;10.36;87.11
54876;BME280;40764;48.472;8.166;2022-11-18T13:51:01;97087.47;;;10.64;85.57
54876;BME280;40764;48.472;8.166;2022-11-18T13:57:03;97086.63;;;10.98;84.88
54876;BME280;40764;48.472;8.166;2022-11-18T14:03:33;97082.00;;;10.21;88.20
54876;BME280;40764;48.472;8.166;2022-11-18T14:09:32;97088.84;;;9.53;91.67
54876;BME280;40764;48.472;8.166;2022-11-18T14:15:34;97095.88;;;9.14;94.76
54876;BME280;40764;48.472;8.166;2022-11-18T14:21:36;97099.59;;;9.18;94.60
54876;BME280;40764;48.472;8.166;2022-11-18T14:27:42;97110.91;;;9.34;94.16
54876;BME280;40764;48.472;8.166;2022-11-18T14:40:22;97129.13;;;9.25;95.69
54876;BME280;40764;48.472;8.166;2022-11-18T14:46:23;97122.38;;;9.22;95.52
54876;BME280;40764;48.472;8.166;2022-11-18T14:52:25;97134.16;;;9.00;97.38
54876;BME280;40764;48.472;8.166;2022-11-18T14:58:25;97137.91;;;9.44;97.14
54876;BME280;40764;48.472;8.166;2022-11-18T15:04:25;97137.28;;;9.47;97.68
54876;BME280;40764;48.472;8.166;2022-11-18T15:10:26;97138.09;;;9.48;98.56
54876;BME280;40764;48.472;8.166;2022-11-18T15:16:28;97132.44;;;9.36;98.71
54876;BME280;40764;48.472;8.166;2022-11-18T15:22:28;97135.53;;;9.20;97.85
54876;BME280;40764;48.472;8.166;2022-11-18T15:28:29;97133.22;;;9.05;98.49
54876;BME280;40764;48.472;8.166;2022-11-18T15:34:31;97138.53;;;8.88;98.48
54876;BME280;40764;48.472;8.166;2022-11-18T15:40:32;97139.63;;;8.64;100.00
54876;BME280;40764;48.472;8.166;2022-11-18T15:46:32;97146.50;;;8.62;100.00
54876;BME280;40764;48.472;8.166;2022-11-18T15:52:32;97157.84;;;8.28;100.00
54876;BME280;40764;48.472;8.166;2022-11-18T15:58:33;97163.00;;;8.43;100.00
54876;BME280;40764;48.472;8.166;2022-11-18T16:04:33;97162.81;;;8.26;100.00
54876;BME280;40764;48.472;8.166;2022-11-18T16:10:35;97186.31;;;8.35;100.00
54876;BME280;40764;48.472;8.166;2022-11-18T16:16:54;97179.84;;;8.45;100.00
54876;BME280;40764;48.472;8.166;2022-11-18T16:22:55;97165.84;;;8.24;100.00
54876;BME280;40764;48.472;8.166;2022-11-18T16:28:57;97175.47;;;8.58;100.00
54876;BME280;40764;48.472;8.166;2022-11-18T16:34:57;97185.72;;;8.38;100.00
54876;BME280;40764;48.472;8.166;2022-11-18T16:40:59;97189.81;;;8.50;100.00
54876;BME280;40764;48.472;8.166;2022-11-18T16:46:59;97192.44;;;8.55;100.00
54876;BME280;40764;48.472;8.166;2022-11-18T16:52:59;97210.06;;;8.71;100.00
54876;BME280;40764;48.472;8.166;2022-11-18T16:59:04;97221.28;;;8.92;100.00
54876;BME280;40764;48.472;8.166;2022-11-18T17:05:05;97227.72;;;8.96;99.31
54876;BME280;40764;48.472;8.166;2022-11-18T17:11:07;97233.88;;;8.65;100.00
54876;BME280;40764;48.472;8.166;2022-11-18T17:17:08;97241.59;;;8.86;100.00
54876;BME280;40764;48.472;8.166;2022-11-18T17:23:08;97239.97;;;8.85;100.00
54876;BME280;40764;48.472;8.166;2022-11-18T17:29:09;97247.81;;;8.50;100.00
54876;BME280;40764;48.472;8.166;2022-11-18T17:35:10;97241.38;;;8.46;100.00
54876;BME280;40764;48.472;8.166;2022-11-18T17:41:12;97249.09;;;8.80;100.00
54876;BME280;40764;48.472;8.166;2022-11-18T17:47:33;97247.63;;;8.47;100.00
54876;BME280;40764;48.472;8.166;2022-11-18T17:53:33;97247.78;;;8.64;100.00
54876;BME280;40764;48.472;8.166;2022-11-18T17:59:34;97254.03;;;8.78;100.00
54876;BME280;40764;48.472;8.166;2022-11-18T18:05:34;97254.66;;;8.75;100.00
54876;BME280;40764;48.472;8.166;2022-11-18T18:11:34;97257.56;;;8.65;100.00
54876;BME280;40764;48.472;8.166;2022-11-18T18:17:35;97264.13;;;8.64;100.00
54876;BME280;40764;48.472;8.166;2022-11-18T18:23:35;97263.44;;;8.58;100.00
54876;BME280;40764;48.472;8.166;2022-11-18T18:29:35;97264.28;;;8.45;100.00
54876;BME280;40764;48.472;8.166;2022-11-18T18:35:40;97265.84;;;8.32;100.00
54876;BME280;40764;48.472;8.166;2022-11-18T18:41:40;97275.97;;;8.46;100.00
54876;BME280;40764;48.472;8.166;2022-11-18T18:47:41;97282.91;;;8.38;100.00
54876;BME280;40764;48.472;8.166;2022-11-18T18:53:41;97285.75;;;8.47;100.00
54876;BME280;40764;48.472;8.166;2022-11-18T18:59:42;97272.88;;;8.38;100.00
54876;BME280;40764;48.472;8.166;2022-11-18T19:05:42;97284.34;;;8.49;100.00
54876;BME280;40764;48.472;8.166;2022-11-18T19:11:43;97285.16;;;8.36;100.00
54876;BME280;40764;48.472;8.166;2022-11-18T19:18:02;97287.06;;;8.35;100.00
54876;BME280;40764;48.472;8.166;2022-11-18T19:24:04;97298.53;;;8.32;100.00
54876;BME280;40764;48.472;8.166;2022-11-18T19:30:06;97301.25;;;8.19;100.00
54876;BME280;40764;48.472;8.166;2022-11-18T19:36:07;97310.72;;;8.07;100.00
54876;BME280;40764;48.472;8.166;2022-11-18T19:42:07;97307.09;;;8.12;100.00
54876;BME280;40764;48.472;8.166;2022-11-18T19:48:09;97298.28;;;7.88;100.00
54876;BME280;40764;48.472;8.166;2022-11-18T19:54:10;97297.69;;;8.04;100.00
54876;BME280;40764;48.472;8.166;2022-11-18T20:00:10;97299.00;;;8.07;100.00
54876;BME280;40764;48.472;8.166;2022-11-18T20:06:12;97291.25;;;8.00;100.00
54876;BME280;40764;48.472;8.166;2022-11-18T20:12:12;97302.25;;;8.23;100.00
54876;BME280;40764;48.472;8.166;2022-11-18T20:18:13;97307.72;;;8.23;100.00
54876;BME280;40764;48.472;8.166;2022-11-18T20:24:17;97308.53;;;8.23;100.00
54876;BME280;40764;48.472;8.166;2022-11-18T20:30:18;97302.47;;;8.13;100.00
54876;BME280;40764;48.472;8.166;2022-11-18T20:42:24;97319.81;;;8.30;100.00
54876;BME280;40764;48.472;8.166;2022-11-18T20:48:43;97323.50;;;8.07;100.00
54876;BME280;40764;48.472;8.166;2022-11-18T20:54:46;97322.19;;;8.04;100.00
54876;BME280;40764;48.472;8.166;2022-11-18T21:00:46;97325.25;;;8.17;100.00
54876;BME280;40764;48.472;8.166;2022-11-18T21:06:46;97338.38;;;8.28;100.00
54876;BME280;40764;48.472;8.166;2022-11-18T21:12:47;97330.81;;;8.25;100.00
54876;BME280;40764;48.472;8.166;2022-11-18T21:19:06;97324.56;;;8.25;100.00
54876;BME280;40764;48.472;8.166;2022-11-18T21:25:07;97337.81;;;8.59;100.00
54876;BME280;40764;48.472;8.166;2022-11-18T21:31:09;97349.56;;;8.27;100.00
54876;BME280;40764;48.472;8.166;2022-11-18T21:37:09;97346.84;;;8.27;100.00
54876;BME280;40764;48.472;8.166;2022-11-18T21:43:10;97337.25;;;8.16;100.00
54876;BME280;40764;48.472;8.166;2022-11-18T21:49:10;97327.75;;;7.99;100.00
54876;BME280;40764;48.472;8.166;2022-11-18T21:55:10;97342.81;;;8.24;100.00
54876;BME280;40764;48.472;8.166;2022-11-18T22:01:26;97359.28;;;8.60;100.00
54876;BME280;40764;48.472;8.166;2022-11-18T22:07:27;97353.25;;;8.50;99.85
54876;BME280;40764;48.472;8.166;2022-11-18T22:13:28;97343.00;;;8.28;100.00
54876;BME280;40764;48.472;8.166;2022-11-18T22:19:29;97337.91;;;7.94;100.00
54876;BME280;40764;48.472;8.166;2022-11-18T22:25:30;97344.72;;;8.10;100.00
54876;BME280;40764;48.472;8.166;2022-11-18T22:31:31;97334.78;;;8.00;100.00
54876;BME280;40764;48.472;8.166;2022-11-18T22:37:31;97340.13;;;8.05;100.00
54876;BME280;40764;48.472;8.166;2022-11-18T22:43:35;97347.91;;;7.98;100.00
54876;BME280;40764;48.472;8.166;2022-11-18T22:49:35;97357.13;;;8.16;100.00
54876;BME280;40764;48.472;8.166;2022-11-18T22:55:36;97351.22;;;8.09;100.00
54876;BME280;40764;48.472;8.166;2022-11-18T23:01:37;97350.81;;;7.88;100.00
54876;BME280;40764;48.472;8.166;2022-11-18T23:07:37;97358.09;;;8.39;100.00
54876;BME280;40764;48.472;8.166;2022-11-18T23:13:38;97351.47;;;8.26;100.00
54876;BME280;40764;48.472;8.166;2022-11-18T23:20:03;97349.72;;;8.03;100.00
54876;BME280;40764;48.472;8.166;2022-11-18T23:32:04;97359.41;;;8.09;100.00
54876;BME280;40764;48.472;8.166;2022-11-18T23:38:04;97353.03;;;8.00;100.00
54876;BME280;40764;48.472;8.166;2022-11-18T23:44:05;97360.19;;;7.96;100.00
54876;BME280;40764;48.472;8.166;2022-11-18T23:50:06;97355.66;;;8.05;100.00
54876;BME280;40764;48.472;8.166;2022-11-18T23:56:17;97361.38;;;7.90;100.00
